sensor_id;sensor_type;location;lat;lon;timestamp;P1;durP1;ratioP1;P2;durP2;ratioP2
69877;SDS011;70037;51.190;6.808;2023-09-08T09:10:44;8.75;;;4.40;;
69877;SDS011;70037;51.190;6.808;2023-09-08T09:11:44;8.27;;;4.43;;
69877;SDS011;70037;51.190;6.808;2023-09-08T09:12:44;5.87;;;4.37;;
69877;SDS011;70037;51.190;6.808;2023-09-08T09:13:44;7.50;;;4.37;;
69877;SDS011;70037;51.190;6.808;2023-09-08T09:14:45;6.87;;;3.70;;
69877;SDS011;70037;51.190;6.808;2023-09-08T09:15:45;6.47;;;3.92;;
69877;SDS011;70037;51.190;6.808;2023-09-08T09:16:46;7.73;;;3.67;;
69877;SDS011;70037;51.190;6.808;2023-09-08T09:17:52;6.45;;;4.00;;
69877;SDS011;70037;51.190;6.808;2023-09-08T09:19:01;6.60;;;3.72;;
69877;SDS011;70037;51.190;6.808;2023-09-08T09:20:14;6.93;;;3.67;;
69877;SDS011;70037;51.190;6.808;2023-09-08T09:21:14;23.73;;;5.47;;
69877;SDS011;70037;51.190;6.808;2023-09-08T09:22:14;8.60;;;4.90;;
69877;SDS011;70037;51.190;6.808;2023-09-08T09:23:29;8.05;;;4.38;;
69877;SDS011;70037;51.190;6.808;2023-09-08T09:25:53;6.40;;;4.40;;
69877;SDS011;70037;51.190;6.808;2023-09-08T09:26:53;7.30;;;4.23;;
69877;SDS011;70037;51.190;6.808;2023-09-08T09:27:54;6.50;;;3.87;;
69877;SDS011;70037;51.190;6.808;2023-09-08T09:28:54;8.60;;;3.78;;
69877;SDS011;70037;51.190;6.808;2023-09-08T09:29:54;8.43;;;4.00;;
69877;SDS011;70037;51.190;6.808;2023-09-08T09:30:54;6.77;;;4.00;;
69877;SDS011;70037;51.190;6.808;2023-09-08T09:38:00;6.13;;;3.85;;
69877;SDS011;70037;51.190;6.808;2023-09-08T09:39:00;6.50;;;4.17;;
69877;SDS011;70037;51.190;6.808;2023-09-08T09:40:00;6.78;;;3.65;;
69877;SDS011;70037;51.190;6.808;2023-09-08T09:41:00;7.37;;;3.73;;
69877;SDS011;70037;51.190;6.808;2023-09-08T09:42:01;5.83;;;4.10;;
69877;SDS011;70037;51.190;6.808;2023-09-08T09:43:01;5.75;;;3.90;;
69877;SDS011;70037;51.190;6.808;2023-09-08T09:44:01;5.77;;;3.80;;
69877;SDS011;70037;51.190;6.808;2023-09-08T09:45:02;5.77;;;3.83;;
69877;SDS011;70037;51.190;6.808;2023-09-08T09:46:02;6.30;;;4.23;;
69877;SDS011;70037;51.190;6.808;2023-09-08T09:47:02;6.20;;;4.10;;
69877;SDS011;70037;51.190;6.808;2023-09-08T09:48:03;10.60;;;4.20;;
69877;SDS011;70037;51.190;6.808;2023-09-08T09:49:03;7.00;;;3.60;;
69877;SDS011;70037;51.190;6.808;2023-09-08T09:50:03;8.20;;;4.10;;
69877;SDS011;70037;51.190;6.808;2023-09-08T09:51:16;5.27;;;3.77;;
69877;SDS011;70037;51.190;6.808;2023-09-08T09:52:22;7.78;;;4.05;;
69877;SDS011;70037;51.190;6.808;2023-09-08T09:53:23;7.38;;;4.25;;
69877;SDS011;70037;51.190;6.808;2023-09-08T09:54:23;5.43;;;4.03;;
69877;SDS011;70037;51.190;6.808;2023-09-08T09:55:23;6.00;;;4.37;;
69877;SDS011;70037;51.190;6.808;2023-09-08T09:56:24;5.03;;;3.73;;
69877;SDS011;70037;51.190;6.808;2023-09-08T09:57:25;4.10;;;3.53;;
69877;SDS011;70037;51.190;6.808;2023-09-08T09:58:26;5.35;;;3.60;;
69877;SDS011;70037;51.190;6.808;2023-09-08T09:59:26;7.20;;;4.93;;
69877;SDS011;70037;51.190;6.808;2023-09-08T10:00:26;5.23;;;3.50;;
69877;SDS011;70037;51.190;6.808;2023-09-08T10:01:27;5.65;;;4.15;;
69877;SDS011;70037;51.190;6.808;2023-09-08T10:02:27;6.28;;;4.00;;
69877;SDS011;70037;51.190;6.808;2023-09-08T10:03:28;5.50;;;3.47;;
69877;SDS011;70037;51.190;6.808;2023-09-08T10:04:29;5.38;;;3.70;;
69877;SDS011;70037;51.190;6.808;2023-09-08T10:05:29;9.07;;;4.05;;
69877;SDS011;70037;51.190;6.808;2023-09-08T10:06:33;5.30;;;3.53;;
69877;SDS011;70037;51.190;6.808;2023-09-08T10:07:33;5.05;;;3.70;;
69877;SDS011;70037;51.190;6.808;2023-09-08T10:08:33;4.90;;;3.90;;
69877;SDS011;70037;51.190;6.808;2023-09-08T10:09:35;5.97;;;3.38;;
69877;SDS011;70037;51.190;6.808;2023-09-08T10:10:35;5.03;;;3.80;;
69877;SDS011;70037;51.190;6.808;2023-09-08T10:11:44;5.25;;;4.13;;
69877;SDS011;70037;51.190;6.808;2023-09-08T10:12:45;11.90;;;3.78;;
69877;SDS011;70037;51.190;6.808;2023-09-08T10:13:46;4.72;;;3.70;;
69877;SDS011;70037;51.190;6.808;2023-09-08T10:18:23;7.63;;;4.05;;
69877;SDS011;70037;51.190;6.808;2023-09-08T10:19:23;6.00;;;3.47;;
69877;SDS011;70037;51.190;6.808;2023-09-08T10:20:24;8.53;;;4.00;;
69877;SDS011;70037;51.190;6.808;2023-09-08T10:21:25;10.60;;;3.70;;
69877;SDS011;70037;51.190;6.808;2023-09-08T10:22:27;9.65;;;3.90;;
69877;SDS011;70037;51.190;6.808;2023-09-08T10:23:31;6.78;;;3.17;;
69877;SDS011;70037;51.190;6.808;2023-09-08T10:24:33;6.28;;;3.67;;
69877;SDS011;70037;51.190;6.808;2023-09-08T10:25:34;10.13;;;3.67;;
69877;SDS011;70037;51.190;6.808;2023-09-08T10:26:37;4.78;;;3.58;;
69877;SDS011;70037;51.190;6.808;2023-09-08T10:27:40;5.63;;;3.40;;
69877;SDS011;70037;51.190;6.808;2023-09-08T10:28:40;4.70;;;3.50;;
69877;SDS011;70037;51.190;6.808;2023-09-08T10:29:40;5.32;;;3.85;;
69877;SDS011;70037;51.190;6.808;2023-09-08T10:30:41;6.90;;;4.07;;
69877;SDS011;70037;51.190;6.808;2023-09-08T10:31:42;6.65;;;3.70;;
69877;SDS011;70037;51.190;6.808;2023-09-08T10:32:43;11.23;;;4.07;;
69877;SDS011;70037;51.190;6.808;2023-09-08T10:33:43;5.23;;;2.97;;
69877;SDS011;70037;51.190;6.808;2023-09-08T10:34:43;8.70;;;3.93;;
69877;SDS011;70037;51.190;6.808;2023-09-08T10:35:44;5.90;;;3.65;;
69877;SDS011;70037;51.190;6.808;2023-09-08T10:36:45;8.85;;;3.92;;
69877;SDS011;70037;51.190;6.808;2023-09-08T10:37:45;6.77;;;4.00;;
69877;SDS011;70037;51.190;6.808;2023-09-08T10:38:45;4.67;;;3.67;;
69877;SDS011;70037;51.190;6.808;2023-09-08T10:39:45;5.90;;;3.60;;
69877;SDS011;70037;51.190;6.808;2023-09-08T10:40:45;6.20;;;3.60;;
69877;SDS011;70037;51.190;6.808;2023-09-08T10:41:45;7.47;;;3.97;;
69877;SDS011;70037;51.190;6.808;2023-09-08T10:42:45;6.20;;;4.23;;
69877;SDS011;70037;51.190;6.808;2023-09-08T10:43:46;5.13;;;3.43;;
69877;SDS011;70037;51.190;6.808;2023-09-08T10:45:49;5.53;;;3.60;;
69877;SDS011;70037;51.190;6.808;2023-09-08T10:46:50;5.55;;;3.67;;
69877;SDS011;70037;51.190;6.808;2023-09-08T10:48:50;4.10;;;3.03;;
69877;SDS011;70037;51.190;6.808;2023-09-08T10:49:52;4.75;;;3.38;;
69877;SDS011;70037;51.190;6.808;2023-09-08T10:50:52;5.57;;;3.63;;
69877;SDS011;70037;51.190;6.808;2023-09-08T10:51:52;6.87;;;4.13;;
69877;SDS011;70037;51.190;6.808;2023-09-08T10:53:06;5.97;;;4.05;;
69877;SDS011;70037;51.190;6.808;2023-09-08T10:54:06;5.82;;;3.72;;
69877;SDS011;70037;51.190;6.808;2023-09-08T10:55:07;5.27;;;3.80;;
69877;SDS011;70037;51.190;6.808;2023-09-08T10:56:07;4.97;;;3.67;;
69877;SDS011;70037;51.190;6.808;2023-09-08T10:57:12;5.40;;;3.70;;
69877;SDS011;70037;51.190;6.808;2023-09-08T10:58:31;5.35;;;4.03;;
69877;SDS011;70037;51.190;6.808;2023-09-08T10:59:34;5.07;;;3.30;;
69877;SDS011;70037;51.190;6.808;2023-09-08T11:00:47;4.18;;;3.72;;
69877;SDS011;70037;51.190;6.808;2023-09-08T11:01:50;5.00;;;3.38;;
69877;SDS011;70037;51.190;6.808;2023-09-08T11:02:50;3.97;;;3.57;;
69877;SDS011;70037;51.190;6.808;2023-09-08T11:03:50;5.10;;;3.43;;
69877;SDS011;70037;51.190;6.808;2023-09-08T11:04:50;5.03;;;3.77;;
69877;SDS011;70037;51.190;6.808;2023-09-08T11:05:51;6.73;;;3.60;;
69877;SDS011;70037;51.190;6.808;2023-09-08T11:06:51;4.10;;;3.53;;
69877;SDS011;70037;51.190;6.808;2023-09-08T11:07:51;6.33;;;3.50;;
69877;SDS011;70037;51.190;6.808;2023-09-08T11:08:51;4.10;;;3.23;;
69877;SDS011;70037;51.190;6.808;2023-09-08T11:09:51;7.67;;;3.90;;
69877;SDS011;70037;51.190;6.808;2023-09-08T11:10:51;5.83;;;3.77;;
69877;SDS011;70037;51.190;6.808;2023-09-08T11:11:51;4.93;;;4.00;;
69877;SDS011;70037;51.190;6.808;2023-09-08T11:12:51;4.20;;;3.20;;
69877;SDS011;70037;51.190;6.808;2023-09-08T11:13:51;5.33;;;4.07;;
69877;SDS011;70037;51.190;6.808;2023-09-08T11:14:52;7.10;;;3.97;;
69877;SDS011;70037;51.190;6.808;2023-09-08T11:15:52;6.27;;;3.60;;
69877;SDS011;70037;51.190;6.808;2023-09-08T11:16:52;5.40;;;3.75;;
69877;SDS011;70037;51.190;6.808;2023-09-08T11:17:52;5.77;;;3.33;;
69877;SDS011;70037;51.190;6.808;2023-09-08T11:18:52;5.73;;;3.67;;
69877;SDS011;70037;51.190;6.808;2023-09-08T11:19:52;4.17;;;3.13;;
69877;SDS011;70037;51.190;6.808;2023-09-08T11:20:53;5.60;;;3.53;;
69877;SDS011;70037;51.190;6.808;2023-09-08T11:21:53;6.47;;;3.73;;
69877;SDS011;70037;51.190;6.808;2023-09-08T11:22:53;5.47;;;3.83;;
69877;SDS011;70037;51.190;6.808;2023-09-08T11:23:53;4.63;;;3.20;;
69877;SDS011;70037;51.190;6.808;2023-09-08T11:24:55;5.60;;;3.47;;
69877;SDS011;70037;51.190;6.808;2023-09-08T11:25:55;7.03;;;3.95;;
69877;SDS011;70037;51.190;6.808;2023-09-08T11:26:55;6.70;;;3.83;;
69877;SDS011;70037;51.190;6.808;2023-09-08T11:27:55;4.87;;;3.30;;
69877;SDS011;70037;51.190;6.808;2023-09-08T11:28:56;9.52;;;4.18;;
69877;SDS011;70037;51.190;6.808;2023-09-08T11:29:57;4.70;;;3.67;;
69877;SDS011;70037;51.190;6.808;2023-09-08T11:30:57;5.17;;;3.33;;
69877;SDS011;70037;51.190;6.808;2023-09-08T11:31:57;5.10;;;3.27;;
69877;SDS011;70037;51.190;6.808;2023-09-08T11:32:58;5.55;;;3.42;;
69877;SDS011;70037;51.190;6.808;2023-09-08T11:33:59;4.47;;;3.65;;
69877;SDS011;70037;51.190;6.808;2023-09-08T11:35:03;5.03;;;3.57;;
69877;SDS011;70037;51.190;6.808;2023-09-08T11:36:10;7.15;;;3.88;;
69877;SDS011;70037;51.190;6.808;2023-09-08T11:37:11;6.30;;;3.38;;
69877;SDS011;70037;51.190;6.808;2023-09-08T11:38:11;4.43;;;3.50;;
69877;SDS011;70037;51.190;6.808;2023-09-08T11:39:11;6.80;;;3.75;;
69877;SDS011;70037;51.190;6.808;2023-09-08T11:40:12;5.27;;;3.83;;
69877;SDS011;70037;51.190;6.808;2023-09-08T11:41:12;5.85;;;3.63;;
69877;SDS011;70037;51.190;6.808;2023-09-08T11:42:13;7.27;;;3.57;;
69877;SDS011;70037;51.190;6.808;2023-09-08T11:43:13;5.53;;;3.25;;
69877;SDS011;70037;51.190;6.808;2023-09-08T11:44:17;4.77;;;3.30;;
69877;SDS011;70037;51.190;6.808;2023-09-08T11:45:17;4.75;;;3.35;;
69877;SDS011;70037;51.190;6.808;2023-09-08T11:46:17;7.67;;;3.43;;
69877;SDS011;70037;51.190;6.808;2023-09-08T11:47:17;6.27;;;3.47;;
69877;SDS011;70037;51.190;6.808;2023-09-08T11:48:17;4.97;;;3.30;;
69877;SDS011;70037;51.190;6.808;2023-09-08T11:49:18;4.67;;;3.60;;
69877;SDS011;70037;51.190;6.808;2023-09-08T11:50:18;7.43;;;3.75;;
69877;SDS011;70037;51.190;6.808;2023-09-08T11:51:22;5.17;;;3.53;;
69877;SDS011;70037;51.190;6.808;2023-09-08T11:52:23;8.43;;;3.55;;
69877;SDS011;70037;51.190;6.808;2023-09-08T11:53:23;7.22;;;3.45;;
69877;SDS011;70037;51.190;6.808;2023-09-08T11:54:23;5.67;;;3.43;;
69877;SDS011;70037;51.190;6.808;2023-09-08T11:55:23;6.23;;;3.50;;
69877;SDS011;70037;51.190;6.808;2023-09-08T11:56:23;3.60;;;3.20;;
69877;SDS011;70037;51.190;6.808;2023-09-08T11:57:24;10.57;;;3.77;;
69877;SDS011;70037;51.190;6.808;2023-09-08T11:58:24;4.63;;;3.53;;
69877;SDS011;70037;51.190;6.808;2023-09-08T11:59:24;4.80;;;3.57;;
69877;SDS011;70037;51.190;6.808;2023-09-08T12:00:25;7.75;;;3.40;;
69877;SDS011;70037;51.190;6.808;2023-09-08T12:01:25;8.10;;;3.20;;
69877;SDS011;70037;51.190;6.808;2023-09-08T12:02:25;7.63;;;3.60;;
69877;SDS011;70037;51.190;6.808;2023-09-08T12:03:25;13.03;;;4.60;;
69877;SDS011;70037;51.190;6.808;2023-09-08T12:04:25;6.27;;;3.50;;
69877;SDS011;70037;51.190;6.808;2023-09-08T12:05:26;7.27;;;3.83;;
69877;SDS011;70037;51.190;6.808;2023-09-08T12:06:27;9.93;;;3.70;;
69877;SDS011;70037;51.190;6.808;2023-09-08T12:07:27;4.57;;;3.50;;
69877;SDS011;70037;51.190;6.808;2023-09-08T12:08:28;7.05;;;3.65;;
69877;SDS011;70037;51.190;6.808;2023-09-08T12:09:28;8.37;;;4.00;;
69877;SDS011;70037;51.190;6.808;2023-09-08T12:10:28;11.60;;;3.87;;
69877;SDS011;70037;51.190;6.808;2023-09-08T12:11:32;7.73;;;3.80;;
69877;SDS011;70037;51.190;6.808;2023-09-08T12:12:32;4.22;;;3.25;;
69877;SDS011;70037;51.190;6.808;2023-09-08T12:13:32;6.20;;;3.17;;
69877;SDS011;70037;51.190;6.808;2023-09-08T12:14:39;4.60;;;3.50;;
69877;SDS011;70037;51.190;6.808;2023-09-08T12:15:40;5.10;;;3.47;;
69877;SDS011;70037;51.190;6.808;2023-09-08T12:16:40;8.70;;;3.40;;
69877;SDS011;70037;51.190;6.808;2023-09-08T12:17:48;5.65;;;3.20;;
69877;SDS011;70037;51.190;6.808;2023-09-08T12:18:48;8.60;;;3.78;;
69877;SDS011;70037;51.190;6.808;2023-09-08T12:19:48;6.85;;;3.65;;
69877;SDS011;70037;51.190;6.808;2023-09-08T12:21:02;6.33;;;3.53;;
69877;SDS011;70037;51.190;6.808;2023-09-08T12:22:03;10.30;;;3.58;;
69877;SDS011;70037;51.190;6.808;2023-09-08T12:23:14;9.25;;;3.90;;
69877;SDS011;70037;51.190;6.808;2023-09-08T12:24:15;7.00;;;3.17;;
69877;SDS011;70037;51.190;6.808;2023-09-08T12:25:15;7.67;;;3.40;;
69877;SDS011;70037;51.190;6.808;2023-09-08T12:26:15;9.13;;;3.60;;
69877;SDS011;70037;51.190;6.808;2023-09-08T12:27:18;7.73;;;3.40;;
69877;SDS011;70037;51.190;6.808;2023-09-08T12:28:19;5.95;;;3.67;;
69877;SDS011;70037;51.190;6.808;2023-09-08T12:29:19;12.68;;;4.18;;
69877;SDS011;70037;51.190;6.808;2023-09-08T12:30:20;10.80;;;3.93;;
69877;SDS011;70037;51.190;6.808;2023-09-08T12:31:20;7.60;;;3.38;;
69877;SDS011;70037;51.190;6.808;2023-09-08T12:32:21;10.50;;;3.27;;
69877;SDS011;70037;51.190;6.808;2023-09-08T12:33:21;7.18;;;3.70;;
69877;SDS011;70037;51.190;6.808;2023-09-08T12:34:21;8.13;;;3.57;;
69877;SDS011;70037;51.190;6.808;2023-09-08T12:35:22;7.47;;;3.70;;
69877;SDS011;70037;51.190;6.808;2023-09-08T12:36:23;5.78;;;3.63;;
69877;SDS011;70037;51.190;6.808;2023-09-08T12:37:24;7.13;;;3.80;;
69877;SDS011;70037;51.190;6.808;2023-09-08T12:38:30;7.75;;;3.63;;
69877;SDS011;70037;51.190;6.808;2023-09-08T12:39:30;5.22;;;3.25;;
69877;SDS011;70037;51.190;6.808;2023-09-08T12:40:34;6.43;;;3.47;;
69877;SDS011;70037;51.190;6.808;2023-09-08T12:41:34;7.13;;;3.53;;
69877;SDS011;70037;51.190;6.808;2023-09-08T12:42:34;13.67;;;3.57;;
69877;SDS011;70037;51.190;6.808;2023-09-08T12:43:34;8.00;;;3.57;;
69877;SDS011;70037;51.190;6.808;2023-09-08T12:44:34;5.07;;;3.37;;
69877;SDS011;70037;51.190;6.808;2023-09-08T12:45:34;6.60;;;3.70;;
69877;SDS011;70037;51.190;6.808;2023-09-08T12:46:34;6.60;;;3.70;;
69877;SDS011;70037;51.190;6.808;2023-09-08T12:47:34;6.17;;;3.50;;
69877;SDS011;70037;51.190;6.808;2023-09-08T12:48:34;5.23;;;3.47;;
69877;SDS011;70037;51.190;6.808;2023-09-08T12:49:35;5.97;;;3.50;;
69877;SDS011;70037;51.190;6.808;2023-09-08T12:50:35;8.23;;;3.70;;
69877;SDS011;70037;51.190;6.808;2023-09-08T12:51:35;7.23;;;3.10;;
69877;SDS011;70037;51.190;6.808;2023-09-08T12:52:35;8.30;;;3.97;;
69877;SDS011;70037;51.190;6.808;2023-09-08T12:53:35;6.73;;;3.37;;
69877;SDS011;70037;51.190;6.808;2023-09-08T12:54:35;8.27;;;3.73;;
69877;SDS011;70037;51.190;6.808;2023-09-08T12:55:35;6.13;;;3.40;;
69877;SDS011;70037;51.190;6.808;2023-09-08T12:56:35;5.03;;;3.33;;
69877;SDS011;70037;51.190;6.808;2023-09-08T12:57:36;6.77;;;3.83;;
69877;SDS011;70037;51.190;6.808;2023-09-08T12:58:36;7.75;;;3.75;;
69877;SDS011;70037;51.190;6.808;2023-09-08T12:59:36;5.77;;;4.10;;
69877;SDS011;70037;51.190;6.808;2023-09-08T13:00:36;6.03;;;3.80;;
69877;SDS011;70037;51.190;6.808;2023-09-08T13:01:36;9.20;;;4.13;;
69877;SDS011;70037;51.190;6.808;2023-09-08T13:02:36;6.70;;;3.43;;
69877;SDS011;70037;51.190;6.808;2023-09-08T13:03:36;8.87;;;3.87;;
69877;SDS011;70037;51.190;6.808;2023-09-08T13:04:36;7.70;;;3.43;;
69877;SDS011;70037;51.190;6.808;2023-09-08T13:05:36;7.77;;;3.73;;
69877;SDS011;70037;51.190;6.808;2023-09-08T13:06:37;11.57;;;3.80;;
69877;SDS011;70037;51.190;6.808;2023-09-08T13:07:37;7.73;;;3.70;;
69877;SDS011;70037;51.190;6.808;2023-09-08T13:08:37;7.37;;;3.40;;
69877;SDS011;70037;51.190;6.808;2023-09-08T13:09:37;5.03;;;3.47;;
69877;SDS011;70037;51.190;6.808;2023-09-08T13:10:37;8.27;;;4.03;;
69877;SDS011;70037;51.190;6.808;2023-09-08T13:11:37;7.07;;;3.60;;
69877;SDS011;70037;51.190;6.808;2023-09-08T13:12:37;7.30;;;3.80;;
69877;SDS011;70037;51.190;6.808;2023-09-08T13:13:37;10.87;;;4.07;;
69877;SDS011;70037;51.190;6.808;2023-09-08T13:14:37;11.33;;;4.37;;
69877;SDS011;70037;51.190;6.808;2023-09-08T13:15:38;11.33;;;4.20;;
69877;SDS011;70037;51.190;6.808;2023-09-08T13:16:38;11.00;;;4.30;;
69877;SDS011;70037;51.190;6.808;2023-09-08T13:17:38;10.43;;;4.17;;
69877;SDS011;70037;51.190;6.808;2023-09-08T13:18:38;7.47;;;3.97;;
69877;SDS011;70037;51.190;6.808;2023-09-08T13:19:38;11.80;;;4.40;;
69877;SDS011;70037;51.190;6.808;2023-09-08T13:20:38;8.17;;;4.40;;
69877;SDS011;70037;51.190;6.808;2023-09-08T13:21:38;8.70;;;4.27;;
69877;SDS011;70037;51.190;6.808;2023-09-08T13:22:38;10.10;;;4.00;;
69877;SDS011;70037;51.190;6.808;2023-09-08T13:23:38;13.00;;;4.23;;
69877;SDS011;70037;51.190;6.808;2023-09-08T13:24:38;11.20;;;4.60;;
69877;SDS011;70037;51.190;6.808;2023-09-08T13:25:39;13.93;;;4.43;;
69877;SDS011;70037;51.190;6.808;2023-09-08T13:26:39;14.65;;;4.38;;
69877;SDS011;70037;51.190;6.808;2023-09-08T13:27:42;6.87;;;3.70;;
69877;SDS011;70037;51.190;6.808;2023-09-08T13:28:42;10.82;;;4.10;;
69877;SDS011;70037;51.190;6.808;2023-09-08T13:29:43;16.37;;;4.77;;
69877;SDS011;70037;51.190;6.808;2023-09-08T13:30:43;6.77;;;3.70;;
69877;SDS011;70037;51.190;6.808;2023-09-08T13:31:43;9.50;;;3.90;;
69877;SDS011;70037;51.190;6.808;2023-09-08T13:32:43;12.13;;;4.10;;
69877;SDS011;70037;51.190;6.808;2023-09-08T13:33:44;9.60;;;4.32;;
69877;SDS011;70037;51.190;6.808;2023-09-08T13:34:44;14.07;;;4.50;;
69877;SDS011;70037;51.190;6.808;2023-09-08T13:35:44;9.90;;;4.43;;
69877;SDS011;70037;51.190;6.808;2023-09-08T13:36:44;9.93;;;4.03;;
69877;SDS011;70037;51.190;6.808;2023-09-08T13:37:44;12.43;;;5.10;;
69877;SDS011;70037;51.190;6.808;2023-09-08T13:38:44;9.03;;;3.87;;
69877;SDS011;70037;51.190;6.808;2023-09-08T13:39:44;11.80;;;4.33;;
69877;SDS011;70037;51.190;6.808;2023-09-08T13:40:44;8.63;;;4.67;;
69877;SDS011;70037;51.190;6.808;2023-09-08T13:41:51;10.20;;;4.43;;
69877;SDS011;70037;51.190;6.808;2023-09-08T13:42:51;8.60;;;4.88;;
69877;SDS011;70037;51.190;6.808;2023-09-08T13:43:51;7.10;;;4.17;;
69877;SDS011;70037;51.190;6.808;2023-09-08T13:44:52;9.87;;;4.70;;
69877;SDS011;70037;51.190;6.808;2023-09-08T13:45:52;17.67;;;4.60;;
69877;SDS011;70037;51.190;6.808;2023-09-08T13:46:52;21.50;;;5.00;;
69877;SDS011;70037;51.190;6.808;2023-09-08T13:47:53;15.50;;;5.18;;
69877;SDS011;70037;51.190;6.808;2023-09-08T13:48:53;10.73;;;4.87;;
69877;SDS011;70037;51.190;6.808;2023-09-08T13:49:53;19.30;;;6.13;;
69877;SDS011;70037;51.190;6.808;2023-09-08T13:50:53;12.37;;;5.47;;
69877;SDS011;70037;51.190;6.808;2023-09-08T13:51:53;21.03;;;6.20;;
69877;SDS011;70037;51.190;6.808;2023-09-08T13:52:53;15.67;;;5.77;;
69877;SDS011;70037;51.190;6.808;2023-09-08T13:53:53;15.60;;;5.53;;
69877;SDS011;70037;51.190;6.808;2023-09-08T13:54:53;17.33;;;5.80;;
69877;SDS011;70037;51.190;6.808;2023-09-08T13:55:53;19.43;;;6.23;;
69877;SDS011;70037;51.190;6.808;2023-09-08T13:57:01;20.10;;;5.73;;
69877;SDS011;70037;51.190;6.808;2023-09-08T13:58:01;15.07;;;5.45;;
69877;SDS011;70037;51.190;6.808;2023-09-08T13:59:01;16.17;;;5.43;;
69877;SDS011;70037;51.190;6.808;2023-09-08T14:00:03;19.97;;;7.00;;
69877;SDS011;70037;51.190;6.808;2023-09-08T14:01:03;21.17;;;6.30;;
69877;SDS011;70037;51.190;6.808;2023-09-08T14:02:03;12.73;;;5.50;;
69877;SDS011;70037;51.190;6.808;2023-09-08T14:03:03;18.80;;;5.77;;
69877;SDS011;70037;51.190;6.808;2023-09-08T14:04:04;12.57;;;6.10;;
69877;SDS011;70037;51.190;6.808;2023-09-08T14:05:04;14.63;;;5.40;;
69877;SDS011;70037;51.190;6.808;2023-09-08T14:06:04;15.57;;;5.87;;
69877;SDS011;70037;51.190;6.808;2023-09-08T14:07:04;22.03;;;5.30;;
69877;SDS011;70037;51.190;6.808;2023-09-08T14:08:05;12.23;;;4.87;;
69877;SDS011;70037;51.190;6.808;2023-09-08T14:09:05;10.20;;;4.90;;
69877;SDS011;70037;51.190;6.808;2023-09-08T14:10:05;14.87;;;5.47;;
69877;SDS011;70037;51.190;6.808;2023-09-08T14:11:05;12.90;;;4.90;;
69877;SDS011;70037;51.190;6.808;2023-09-08T14:12:05;11.33;;;4.87;;
69877;SDS011;70037;51.190;6.808;2023-09-08T14:13:05;13.83;;;6.03;;
69877;SDS011;70037;51.190;6.808;2023-09-08T14:14:05;13.13;;;5.80;;
69877;SDS011;70037;51.190;6.808;2023-09-08T14:15:06;13.23;;;5.30;;
69877;SDS011;70037;51.190;6.808;2023-09-08T14:16:06;12.05;;;5.13;;
69877;SDS011;70037;51.190;6.808;2023-09-08T14:17:06;12.90;;;5.40;;
69877;SDS011;70037;51.190;6.808;2023-09-08T14:18:06;10.07;;;5.27;;
69877;SDS011;70037;51.190;6.808;2023-09-08T14:19:06;12.13;;;5.10;;
69877;SDS011;70037;51.190;6.808;2023-09-08T14:20:06;8.43;;;4.80;;
69877;SDS011;70037;51.190;6.808;2023-09-08T14:21:07;14.10;;;5.20;;
69877;SDS011;70037;51.190;6.808;2023-09-08T14:22:07;10.57;;;4.90;;
69877;SDS011;70037;51.190;6.808;2023-09-08T14:23:07;12.63;;;5.40;;
69877;SDS011;70037;51.190;6.808;2023-09-08T14:24:07;10.53;;;4.27;;
69877;SDS011;70037;51.190;6.808;2023-09-08T14:25:07;10.93;;;4.80;;
69877;SDS011;70037;51.190;6.808;2023-09-08T14:26:07;12.90;;;5.22;;
69877;SDS011;70037;51.190;6.808;2023-09-08T14:27:07;10.63;;;5.63;;
69877;SDS011;70037;51.190;6.808;2023-09-08T14:28:08;10.17;;;4.97;;
69877;SDS011;70037;51.190;6.808;2023-09-08T14:29:08;10.15;;;4.90;;
69877;SDS011;70037;51.190;6.808;2023-09-08T14:30:08;9.10;;;4.43;;
69877;SDS011;70037;51.190;6.808;2023-09-08T14:31:08;11.57;;;5.20;;
69877;SDS011;70037;51.190;6.808;2023-09-08T14:32:08;13.13;;;4.93;;
69877;SDS011;70037;51.190;6.808;2023-09-08T14:33:08;9.40;;;5.00;;
69877;SDS011;70037;51.190;6.808;2023-09-08T14:34:09;13.10;;;5.70;;
69877;SDS011;70037;51.190;6.808;2023-09-08T14:35:09;10.43;;;4.70;;
69877;SDS011;70037;51.190;6.808;2023-09-08T14:36:09;16.37;;;5.10;;
69877;SDS011;70037;51.190;6.808;2023-09-08T14:37:09;12.27;;;5.33;;
69877;SDS011;70037;51.190;6.808;2023-09-08T14:38:09;15.27;;;5.00;;
69877;SDS011;70037;51.190;6.808;2023-09-08T14:39:09;14.63;;;5.57;;
69877;SDS011;70037;51.190;6.808;2023-09-08T14:40:10;9.10;;;4.93;;
69877;SDS011;70037;51.190;6.808;2023-09-08T14:41:10;11.50;;;4.80;;
69877;SDS011;70037;51.190;6.808;2023-09-08T14:42:10;14.40;;;5.63;;
69877;SDS011;70037;51.190;6.808;2023-09-08T14:43:10;9.37;;;4.77;;
69877;SDS011;70037;51.190;6.808;2023-09-08T14:44:10;16.20;;;5.07;;
69877;SDS011;70037;51.190;6.808;2023-09-08T14:45:10;7.67;;;4.77;;
69877;SDS011;70037;51.190;6.808;2023-09-08T14:46:11;8.23;;;4.80;;
69877;SDS011;70037;51.190;6.808;2023-09-08T14:47:11;11.98;;;5.90;;
69877;SDS011;70037;51.190;6.808;2023-09-08T14:48:12;9.90;;;4.60;;
69877;SDS011;70037;51.190;6.808;2023-09-08T14:49:12;10.83;;;5.00;;
69877;SDS011;70037;51.190;6.808;2023-09-08T14:50:12;13.23;;;4.83;;
69877;SDS011;70037;51.190;6.808;2023-09-08T14:51:12;7.57;;;4.40;;
69877;SDS011;70037;51.190;6.808;2023-09-08T14:52:12;7.10;;;5.00;;
69877;SDS011;70037;51.190;6.808;2023-09-08T14:53:12;11.87;;;4.90;;
69877;SDS011;70037;51.190;6.808;2023-09-08T14:54:12;13.03;;;5.07;;
69877;SDS011;70037;51.190;6.808;2023-09-08T14:55:12;11.90;;;5.57;;
69877;SDS011;70037;51.190;6.808;2023-09-08T14:56:12;9.80;;;4.90;;
69877;SDS011;70037;51.190;6.808;2023-09-08T14:57:12;8.47;;;4.40;;
69877;SDS011;70037;51.190;6.808;2023-09-08T14:58:13;9.83;;;5.03;;
69877;SDS011;70037;51.190;6.808;2023-09-08T14:59:13;8.93;;;4.45;;
69877;SDS011;70037;51.190;6.808;2023-09-08T15:00:13;12.23;;;4.87;;
69877;SDS011;70037;51.190;6.808;2023-09-08T15:01:13;9.47;;;4.83;;
69877;SDS011;70037;51.190;6.808;2023-09-08T15:02:13;9.47;;;5.07;;
69877;SDS011;70037;51.190;6.808;2023-09-08T15:03:14;10.23;;;4.83;;
69877;SDS011;70037;51.190;6.808;2023-09-08T15:04:14;9.60;;;4.43;;
69877;SDS011;70037;51.190;6.808;2023-09-08T15:05:14;8.87;;;4.30;;
69877;SDS011;70037;51.190;6.808;2023-09-08T15:06:14;10.80;;;4.90;;
69877;SDS011;70037;51.190;6.808;2023-09-08T15:07:15;8.80;;;5.10;;
69877;SDS011;70037;51.190;6.808;2023-09-08T15:08:15;9.07;;;4.33;;
69877;SDS011;70037;51.190;6.808;2023-09-08T15:09:15;12.53;;;5.50;;
69877;SDS011;70037;51.190;6.808;2023-09-08T15:10:15;15.73;;;5.13;;
69877;SDS011;70037;51.190;6.808;2023-09-08T15:11:15;33.20;;;5.60;;
69877;SDS011;70037;51.190;6.808;2023-09-08T15:12:18;27.50;;;5.33;;
69877;SDS011;70037;51.190;6.808;2023-09-08T15:13:18;21.35;;;4.90;;
69877;SDS011;70037;51.190;6.808;2023-09-08T15:14:18;12.30;;;4.77;;
69877;SDS011;70037;51.190;6.808;2023-09-08T15:15:18;26.90;;;5.13;;
69877;SDS011;70037;51.190;6.808;2023-09-08T15:16:18;21.40;;;4.67;;
69877;SDS011;70037;51.190;6.808;2023-09-08T15:17:18;13.97;;;5.10;;
69877;SDS011;70037;51.190;6.808;2023-09-08T15:18:18;17.53;;;4.53;;
69877;SDS011;70037;51.190;6.808;2023-09-08T15:19:18;18.93;;;5.17;;
69877;SDS011;70037;51.190;6.808;2023-09-08T15:20:19;17.57;;;4.90;;
69877;SDS011;70037;51.190;6.808;2023-09-08T15:21:19;20.63;;;5.10;;
69877;SDS011;70037;51.190;6.808;2023-09-08T15:22:19;17.70;;;4.73;;
69877;SDS011;70037;51.190;6.808;2023-09-08T15:23:19;21.13;;;5.10;;
69877;SDS011;70037;51.190;6.808;2023-09-08T15:24:19;15.53;;;5.37;;
69877;SDS011;70037;51.190;6.808;2023-09-08T15:25:19;14.67;;;5.33;;
69877;SDS011;70037;51.190;6.808;2023-09-08T15:26:19;13.00;;;4.87;;
69877;SDS011;70037;51.190;6.808;2023-09-08T15:27:20;16.83;;;5.50;;
69877;SDS011;70037;51.190;6.808;2023-09-08T15:28:20;18.07;;;5.43;;